Time;durP1;ratioP1;P1;durP2;ratioP2;P2;SDS_P1;SDS_P2;PMS_P1;PMS_P2;Temp;Humidity;BMP_temperature;BMP_pressure;BME280_temperature;BME280_humidity;BME280_pressure;Samples;Min_cycle;Max_cycle;Signal;HPM_P1;HPM_P2
2022/06/08 00:01:05;;;;;;;0.13;0.10;;;;;;;19.83;57.06;96494.13;10412357;28;20049;-21
2022/06/08 00:06:06;;;;;;;0.10;0.10;;;;;;;19.61;56.70;96475.66;10411936;28;20500;-21
2022/06/08 00:11:07;;;;;;;0.10;0.10;;;;;;;19.66;56.77;96478.19;10420098;28;20033;-20
2022/06/08 00:16:09;;;;;;;0.20;0.20;;;;;;;19.64;57.06;96477.34;10451885;28;20036;-21
2022/06/08 00:21:09;;;;;;;0.20;0.20;;;;;;;19.61;56.86;96469.75;10432449;28;20045;-21
2022/06/08 00:26:10;;;;;;;0.30;0.20;;;;;;;19.61;56.87;96460.44;10409801;28;20136;-21
2022/06/08 00:31:11;;;;;;;0.38;0.20;;;;;;;19.59;57.17;96456.25;10409133;28;20427;-22
2022/06/08 00:36:15;;;;;;;0.20;0.20;;;;;;;19.59;57.40;96443.56;10445846;28;20066;-20
2022/06/08 00:41:38;;;;;;;0.20;0.20;;;;;;;19.59;56.88;96435.94;10438212;28;20128;-20
2022/06/08 00:46:39;;;;;;;0.32;0.10;;;;;;;19.58;57.14;96436.78;10408476;28;20071;-21
2022/06/08 00:51:39;;;;;;;0.68;0.20;;;;;;;19.80;57.62;96436.56;10435936;28;20075;-21
2022/06/08 00:56:47;;;;;;;0.10;0.10;;;;;;;19.86;56.57;96438.22;10463122;28;20040;-21
2022/06/08 01:01:47;;;;;;;0.10;0.10;;;;;;;19.72;56.67;96437.47;10407337;28;20083;-21
2022/06/08 01:06:55;;;;;;;0.32;0.20;;;;;;;19.65;56.85;96425.69;10406379;28;20025;-21
2022/06/08 01:12:00;;;;;;;0.13;0.13;;;;;;;19.61;56.81;96422.34;10406697;28;20033;-21
2022/06/08 01:17:09;;;;;;;0.13;0.13;;;;;;;19.60;56.71;96419.84;10406414;28;20029;-21
2022/06/08 01:22:14;;;;;;;0.15;0.10;;;;;;;19.60;56.87;96418.13;10408353;28;20399;-20
2022/06/08 01:27:31;;;;;;;0.10;0.10;;;;;;;19.59;57.00;96413.06;10422682;28;20113;-21
2022/06/08 01:32:39;;;;;;;0.40;0.20;;;;;;;19.55;56.73;96412.25;10415845;28;20039;-21
2022/06/08 01:37:48;;;;;;;0.20;0.20;;;;;;;19.60;56.88;96407.13;10422505;28;20029;-20
2022/06/08 01:43:05;;;;;;;0.17;0.17;;;;;;;19.57;56.96;96397.00;10430009;28;20033;-20
2022/06/08 01:48:33;;;;;;;0.40;0.20;;;;;;;19.81;57.77;96394.22;10445267;28;20033;-21
2022/06/08 01:53:56;;;;;;;0.20;0.10;;;;;;;19.86;56.51;96382.31;10468013;28;20062;-21
2022/06/08 01:59:44;;;;;;;0.13;0.13;;;;;;;19.69;56.95;96381.66;10461341;28;20033;-21
2022/06/08 02:04:57;;;;;;;0.17;0.10;;;;;;;19.65;56.97;96374.91;10435900;28;20072;-21
2022/06/08 02:10:22;;;;;;;0.17;0.10;;;;;;;19.60;56.87;96359.72;10429341;28;20539;-20
2022/06/08 02:15:30;;;;;;;0.32;0.20;;;;;;;19.60;56.93;96353.81;10412010;28;20048;-21
2022/06/08 02:20:38;;;;;;;0.10;0.10;;;;;;;19.57;56.80;96347.06;10412847;28;20368;-21
2022/06/08 02:25:57;;;;;;;0.20;0.20;;;;;;;19.57;56.77;96349.59;10428746;28;20523;-21
2022/06/08 02:31:13;;;;;;;0.38;0.10;;;;;;;19.57;56.83;96352.13;10413083;28;20029;-21
2022/06/08 02:36:19;;;;;;;0.10;0.10;;;;;;;19.57;56.85;96341.13;10424983;28;20048;-21
2022/06/08 02:41:24;;;;;;;0.40;0.30;;;;;;;19.62;58.91;96344.47;10422164;28;20036;-21
2022/06/08 02:46:50;;;;;;;0.10;0.10;;;;;;;19.83;57.51;96334.09;10452454;28;20025;-21
2022/06/08 02:51:59;;;;;;;0.32;0.20;;;;;;;19.73;56.90;96312.16;10448764;28;20039;-21
2022/06/08 02:57:16;;;;;;;0.10;0.10;;;;;;;19.67;56.68;96323.25;10461588;28;20060;-20
2022/06/08 03:02:27;;;;;;;0.15;0.15;;;;;;;19.63;56.95;96323.28;10427276;28;20064;-21
2022/06/08 03:07:38;;;;;;;0.20;0.20;;;;;;;19.61;56.94;96322.47;10409158;28;20296;-21
2022/06/08 03:12:47;;;;;;;0.10;0.10;;;;;;;19.58;56.95;96325.06;10410071;28;20472;-21
2022/06/08 03:17:50;;;;;;;0.20;0.10;;;;;;;19.51;56.75;96296.31;10410335;28;20037;-21
2022/06/08 03:22:51;;;;;;;0.10;0.10;;;;;;;19.59;56.96;96319.13;10409895;28;20065;-20
2022/06/08 03:27:53;;;;;;;0.30;0.22;;;;;;;19.57;56.85;96301.34;10432490;28;20033;-21
2022/06/08 03:32:54;;;;;;;0.10;0.10;;;;;;;19.56;56.82;96302.22;10450785;28;20565;-21
2022/06/08 03:37:54;;;;;;;0.10;0.10;;;;;;;19.57;57.37;96292.88;10450877;28;20037;-21
2022/06/08 03:42:58;;;;;;;0.20;0.10;;;;;;;19.71;57.60;96278.34;10426220;28;20041;-20
2022/06/08 03:47:58;;;;;;;0.10;0.10;;;;;;;19.81;56.90;96273.13;10409404;28;20075;-21
2022/06/08 03:53:09;;;;;;;0.50;0.20;;;;;;;19.68;56.70;96278.38;10459207;28;20039;-22
2022/06/08 03:58:10;;;;;;;0.20;0.15;;;;;;;19.61;56.75;96281.84;10439890;28;20037;-20
2022/06/08 04:03:15;;;;;;;0.10;0.10;;;;;;;19.52;56.85;96257.38;10408740;28;20029;-21
2022/06/08 04:08:17;;;;;;;0.10;0.08;;;;;;;19.58;56.81;96274.28;10409409;28;20030;-22
2022/06/08 04:13:23;;;;;;;0.10;0.10;;;;;;;19.57;56.70;96277.63;10408230;28;20044;-21
2022/06/08 04:18:28;;;;;;;0.10;0.10;;;;;;;19.51;56.87;96260.78;10408432;28;20037;-21
2022/06/08 04:23:34;;;;;;;0.20;0.15;;;;;;;19.55;56.71;96262.44;10407368;28;20053;-21
2022/06/08 04:28:35;;;;;;;0.10;0.10;;;;;;;19.56;56.82;96263.28;10407739;28;20583;-22
2022/06/08 04:33:42;;;;;;;0.10;0.10;;;;;;;19.56;56.95;96273.44;10436355;28;20029;-20
2022/06/08 04:38:43;;;;;;;0.13;0.10;;;;;;;19.74;57.69;96274.06;10408014;28;20059;-22
2022/06/08 04:43:44;;;;;;;0.30;0.15;;;;;;;19.82;56.90;96261.25;10417259;28;20025;-22
2022/06/08 04:48:46;;;;;;;0.35;0.15;;;;;;;19.70;56.74;96261.41;10407160;28;20116;-20
2022/06/08 04:53:49;;;;;;;0.10;0.10;;;;;;;19.61;56.50;96261.53;10406805;28;20033;-22
2022/06/08 04:58:53;;;;;;;0.13;0.13;;;;;;;19.61;56.65;96271.69;10407416;28;20120;-21
2022/06/08 05:03:54;;;;;;;0.57;0.32;;;;;;;19.58;56.84;96261.56;10406818;28;20503;-21
2022/06/08 05:08:55;;;;;;;0.17;0.17;;;;;;;19.56;56.88;96251.44;10407056;28;20040;-20
2022/06/08 05:13:59;;;;;;;0.10;0.10;;;;;;;19.56;56.81;96245.50;10406716;28;20488;-20
2022/06/08 05:19:00;;;;;;;0.20;0.20;;;;;;;19.55;56.91;96249.75;10406526;28;20053;-20
2022/06/08 05:24:01;;;;;;;0.10;0.10;;;;;;;19.54;56.84;96245.53;10414595;28;20029;-20
2022/06/08 05:29:11;;;;;;;0.17;0.13;;;;;;;19.54;56.72;96244.69;10409344;28;20116;-21
2022/06/08 05:34:12;;;;;;;0.13;0.13;;;;;;;19.66;58.26;96249.63;10446071;28;20112;-20
2022/06/08 05:39:14;;;;;;;0.32;0.10;;;;;;;19.81;57.64;96244.34;10430736;28;20369;-21
2022/06/08 05:44:20;;;;;;;0.15;0.08;;;;;;;19.63;56.70;96225.09;10413773;28;20083;-20
2022/06/08 05:49:24;;;;;;;0.07;0.07;;;;;;;19.62;56.82;96236.13;10414311;28;20120;-21
2022/06/08 05:54:29;;;;;;;0.30;0.10;;;;;;;19.59;56.81;96227.69;10488463;28;20033;-21
2022/06/08 05:59:30;;;;;;;0.10;0.10;;;;;;;19.57;56.75;96230.25;10421599;28;20033;-21
2022/06/08 06:04:30;;;;;;;0.20;0.15;;;;;;;19.55;56.94;96221.81;10414443;28;20033;-21
2022/06/08 06:09:32;;;;;;;0.10;0.10;;;;;;;19.52;56.79;96213.41;10413134;28;20033;-20
2022/06/08 06:14:35;;;;;;;0.35;0.20;;;;;;;19.54;56.77;96204.06;10449105;28;20087;-23
2022/06/08 06:19:35;;;;;;;0.30;0.20;;;;;;;19.53;56.84;96212.53;10439431;28;20056;-20
2022/06/08 06:25:03;;;;;;;0.10;0.10;;;;;;;19.47;56.74;96192.28;10412382;28;20034;-22
2022/06/08 06:30:22;;;;;;;0.10;0.10;;;;;;;19.65;58.15;96199.66;10412245;28;20045;-21
2022/06/08 06:35:56;;;;;;;0.30;0.10;;;;;;;19.83;57.42;96186.75;10442036;28;20587;-19
2022/06/08 06:40:57;;;;;;;0.10;0.10;;;;;;;19.69;56.55;96189.44;10411169;28;20029;-21
2022/06/08 06:45:59;;;;;;;0.10;0.10;;;;;;;19.62;56.70;96179.41;10411136;28;20117;-21
2022/06/08 06:51:10;;;;;;;0.10;0.10;;;;;;;19.57;56.73;96184.53;10431084;28;20024;-21
2022/06/08 06:56:12;;;;;;;0.20;0.13;;;;;;;19.55;56.77;96171.03;10473383;28;20427;-21
2022/06/08 07:01:18;;;;;;;0.30;0.30;;;;;;;19.54;57.03;96163.44;10410710;28;20282;-21
2022/06/08 07:06:20;;;;;;;0.10;0.10;;;;;;;19.53;56.87;96159.22;10410464;28;20025;-21
2022/06/08 07:11:33;;;;;;;0.20;0.10;;;;;;;19.53;56.96;96156.66;10426730;28;20037;-25
2022/06/08 07:16:40;;;;;;;0.30;0.30;;;;;;;19.53;56.89;96146.53;10409858;28;20034;-21
2022/06/08 07:21:41;;;;;;;0.10;0.10;;;;;;;19.50;56.75;96131.34;10410588;28;20029;-22
2022/06/08 07:26:41;;;;;;;0.30;0.10;;;;;;;19.64;57.75;96144.66;10412149;28;20367;-20
2022/06/08 07:31:42;;;;;;;0.10;0.10;;;;;;;19.80;57.76;96133.44;10413830;28;20399;-21
2022/06/08 07:36:46;;;;;;;0.10;0.10;;;;;;;19.69;56.47;96148.00;10434889;28;20183;-21
2022/06/08 07:41:48;;;;;;;0.08;0.08;;;;;;;19.60;56.77;96132.88;10410932;28;20040;-21
2022/06/08 07:46:48;;;;;;;0.10;0.10;;;;;;;19.58;56.86;96132.06;10410774;28;20049;-20
2022/06/08 07:51:55;;;;;;;0.20;0.20;;;;;;;19.55;56.62;96124.47;10441142;28;20039;-21
2022/06/08 07:56:55;;;;;;;0.10;0.10;;;;;;;19.54;56.75;96115.19;10460301;28;20117;-21
2022/06/08 08:01:57;;;;;;;0.27;0.20;;;;;;;19.53;56.93;96121.13;10410738;28;20108;-20
2022/06/08 08:06:57;;;;;;;0.20;0.10;;;;;;;19.50;57.27;96111.03;10409399;28;20514;-22
2022/06/08 08:11:57;;;;;;;0.13;0.13;;;;;;;19.50;56.67;96101.69;10408924;28;20083;-21
2022/06/08 08:16:58;;;;;;;0.13;0.10;;;;;;;19.52;56.79;96104.22;10409679;28;20030;-21
2022/06/08 08:21:58;;;;;;;0.10;0.00;;;;;;;19.57;58.38;96093.13;10409337;28;20044;-21
2022/06/08 08:26:59;;;;;;;0.10;0.10;;;;;;;19.78;57.38;96097.06;10408856;28;20393;-21
2022/06/08 08:31:59;;;;;;;0.10;0.10;;;;;;;19.79;56.94;96086.03;10414353;28;20033;-21
2022/06/08 08:37:00;;;;;;;0.10;0.10;;;;;;;19.66;56.68;96071.88;10430400;28;20026;-21
2022/06/08 08:48:05;;;;;;;0.20;0.20;;;;;;;19.59;56.89;96055.84;10408777;28;20476;-21
2022/06/08 08:53:29;;;;;;;0.28;0.10;;;;;;;19.52;56.77;96048.38;10467183;28;20044;-21
2022/06/08 08:58:34;;;;;;;0.10;0.10;;;;;;;19.55;56.90;96055.94;10433134;28;20041;-21
2022/06/08 09:03:54;;;;;;;0.25;0.15;;;;;;;19.54;56.82;96052.56;10414814;28;20123;-22
2022/06/08 09:09:00;;;;;;;0.20;0.20;;;;;;;19.52;57.09;96043.28;10458730;28;20648;-21
2022/06/08 09:14:06;;;;;;;0.10;0.10;;;;;;;19.55;56.86;96049.16;10424674;28;20181;-21
2022/06/08 09:19:26;;;;;;;0.40;0.20;;;;;;;19.63;58.62;96041.41;10416194;28;20491;-20
2022/06/08 09:24:47;;;;;;;0.20;0.20;;;;;;;19.81;57.58;96033.50;10415798;28;20701;-21
2022/06/08 09:29:58;;;;;;;0.05;0.05;;;;;;;19.77;56.81;96027.63;10453967;28;20091;-21
2022/06/08 09:35:03;;;;;;;0.22;0.22;;;;;;;19.62;56.54;96010.13;10455266;28;20123;-22
2022/06/08 09:40:05;;;;;;;0.20;0.10;;;;;;;19.58;56.90;96012.75;10456073;28;20041;-20
2022/06/08 09:45:26;;;;;;;0.10;0.10;;;;;;;19.57;56.77;96003.41;10455776;28;20033;-20
2022/06/08 09:56:30;;;;;;;0.13;0.13;;;;;;;19.54;56.79;96000.94;10480909;28;20045;-21
2022/06/08 10:01:42;;;;;;;0.20;0.15;;;;;;;19.52;56.88;96000.94;10414745;28;20484;-26
2022/06/08 10:06:48;;;;;;;0.20;0.20;;;;;;;19.53;56.96;95997.56;10436263;28;20036;-21
2022/06/08 10:12:00;;;;;;;0.08;0.08;;;;;;;19.51;56.83;95980.69;10440895;28;20052;-21
2022/06/08 10:17:10;;;;;;;0.08;0.08;;;;;;;19.55;57.68;95972.13;10413383;28;20364;-20
2022/06/08 10:22:12;;;;;;;0.03;0.03;;;;;;;19.80;57.45;95973.41;10414438;28;20037;-21
2022/06/08 10:27:32;;;;;;;0.10;0.10;;;;;;;19.72;57.18;95980.31;10413582;28;20033;-21
2022/06/08 10:32:38;;;;;;;0.10;0.10;;;;;;;19.61;56.69;95982.22;10422532;28;20115;-22
2022/06/08 10:37:39;;;;;;;;;;;;;;;19.57;56.88;95975.47;10415021;28;20563;-21
2022/06/08 10:42:48;;;;;;;0.20;0.20;;;;;;;19.56;57.07;95989.03;10412680;28;20287;-21
2022/06/08 10:48:03;;;;;;;0.10;0.10;;;;;;;19.48;56.77;95966.31;10413325;28;20045;-21
2022/06/08 10:58:54;;;;;;;0.10;0.10;;;;;;;19.51;57.05;95970.53;10433506;28;20045;-21
2022/06/08 11:03:56;;;;;;;0.17;0.17;;;;;;;19.57;57.01;95972.94;10412514;28;20120;-21
2022/06/08 11:09:00;;;;;;;0.20;0.20;;;;;;;19.55;57.02;95967.06;10412261;28;20040;-22
2022/06/08 11:14:01;;;;;;;0.10;0.10;;;;;;;19.67;57.75;95969.41;10443581;28;20518;-21
2022/06/08 11:19:10;;;;;;;0.00;0.00;;;;;;;19.84;57.64;95968.25;10453415;28;20040;-20
2022/06/08 11:24:23;;;;;;;0.22;0.20;;;;;;;19.75;56.95;95968.41;10411937;28;20522;-21
2022/06/08 11:29:29;;;;;;;0.00;0.00;;;;;;;19.65;56.45;95963.50;10410406;28;20124;-21
2022/06/08 11:34:49;;;;;;;0.20;0.20;;;;;;;19.55;56.79;95946.75;10434746;28;20413;-21
2022/06/08 11:40:19;;;;;;;0.20;0.20;;;;;;;19.58;56.95;95957.69;10452508;28;20119;-21
2022/06/08 11:45:22;;;;;;;0.15;0.10;;;;;;;19.57;56.83;95957.72;10410481;28;20110;-21
2022/06/08 11:50:41;;;;;;;0.08;0.08;;;;;;;19.57;56.75;95960.25;10424813;28;20029;-20
2022/06/08 11:55:58;;;;;;;0.20;0.20;;;;;;;19.55;56.85;95949.28;10480173;28;20112;-21
2022/06/08 12:01:01;;;;;;;;;;;;;;;19.56;56.74;95958.56;10410711;28;20046;-22
2022/06/08 12:06:27;;;;;;;0.10;0.10;;;;;;;19.55;56.82;95951.81;10409678;28;19913;-21
2022/06/08 12:11:30;;;;;;;0.13;0.10;;;;;;;19.61;57.85;95956.81;10419888;28;20051;-21
2022/06/08 12:16:35;;;;;;;0.00;0.00;;;;;;;19.83;57.63;95958.13;10450648;28;20517;-20
2022/06/08 12:21:38;;;;;;;0.10;0.10;;;;;;;19.77;57.14;95973.47;10427500;28;20491;-21
2022/06/08 12:26:57;;;;;;;0.20;0.20;;;;;;;19.62;57.14;95968.66;10421867;28;20068;-22
2022/06/08 12:32:00;;;;;;;0.20;0.20;;;;;;;19.63;57.01;95975.41;10450386;28;20395;-22
2022/06/08 12:37:23;;;;;;;0.20;0.10;;;;;;;19.62;57.18;95976.25;10422403;28;20124;-21
2022/06/08 12:42:31;;;;;;;0.00;0.00;;;;;;;19.61;57.22;95982.22;10426907;28;20090;-21
2022/06/08 12:47:45;;;;;;;0.45;0.20;;;;;;;19.61;57.11;95982.22;10449788;28;20033;-23
2022/06/08 12:52:46;;;;;;;0.10;0.10;;;;;;;19.59;57.06;95989.03;10426836;28;20565;-21
2022/06/08 12:57:47;;;;;;;0.80;0.20;;;;;;;19.58;57.02;95993.25;10408732;28;20042;-21
2022/06/08 13:02:50;;;;;;;0.10;0.10;;;;;;;19.60;57.15;96000.84;10408906;28;20037;-21
2022/06/08 13:07:54;;;;;;;0.13;0.10;;;;;;;19.65;58.36;96006.66;10407901;28;20025;-22
2022/06/08 13:13:03;;;;;;;0.20;0.20;;;;;;;19.83;57.88;96019.09;10407617;28;20424;-21
2022/06/08 13:18:05;;;;;;;0.28;0.10;;;;;;;19.77;57.13;96026.81;10407965;28;20512;-21
2022/06/08 13:23:06;;;;;;;0.10;0.10;;;;;;;19.67;56.93;96040.53;10408217;28;20033;-21
2022/06/08 13:28:16;;;;;;;0.00;0.00;;;;;;;19.62;57.03;96040.59;10407869;28;20484;-22
2022/06/08 13:38:38;;;;;;;0.00;0.00;;;;;;;19.59;56.90;96068.56;10447158;28;20068;-22
2022/06/08 13:43:39;;;;;;;0.10;0.10;;;;;;;19.59;57.07;96080.44;10418557;28;20116;-21
2022/06/08 13:48:39;;;;;;;0.10;0.10;;;;;;;19.58;57.06;96088.91;10407508;28;20064;-22
2022/06/08 13:53:40;;;;;;;0.10;0.10;;;;;;;19.57;57.01;96089.75;10476302;28;20448;-23
2022/06/08 13:58:41;;;;;;;0.00;0.00;;;;;;;19.57;57.00;96097.34;10436989;28;20378;-20
2022/06/08 14:03:41;;;;;;;0.10;0.10;;;;;;;19.55;58.71;96094.88;10414019;28;20060;-20
2022/06/08 14:14:08;;;;;;;0.10;0.10;;;;;;;19.80;56.84;96098.72;10412566;28;20296;-21
2022/06/08 14:19:29;;;;;;;0.00;0.00;;;;;;;19.67;57.17;96089.59;10420636;28;20411;-20
2022/06/08 14:24:37;;;;;;;0.10;0.10;;;;;;;19.60;56.94;96088.00;10455013;28;20094;-21
2022/06/08 14:29:38;;;;;;;0.10;0.10;;;;;;;19.56;56.96;96083.00;10416676;28;20029;-23
2022/06/08 14:34:38;;;;;;;0.20;0.15;;;;;;;19.56;56.96;96083.84;10438284;28;20029;-22
2022/06/08 14:39:39;;;;;;;0.10;0.10;;;;;;;19.55;56.79;96083.84;10454638;28;20117;-21
2022/06/08 14:44:41;;;;;;;0.20;0.17;;;;;;;19.55;56.97;96088.94;10416280;28;20299;-21
2022/06/08 14:49:41;;;;;;;0.10;0.10;;;;;;;19.53;56.79;96072.88;10413080;28;20026;-21
2022/06/08 14:54:43;;;;;;;0.10;0.10;;;;;;;19.52;56.86;96064.41;10447133;28;20040;-21
2022/06/08 14:59:43;;;;;;;0.10;0.10;;;;;;;19.53;57.23;96075.44;10412773;28;20033;-20
2022/06/08 15:04:44;;;;;;;1.58;0.10;;;;;;;19.72;57.58;96072.59;10412073;28;20045;-21
2022/06/08 15:09:46;;;;;;;0.10;0.10;;;;;;;19.82;57.06;96063.13;10412707;28;20112;-20
2022/06/08 15:14:52;;;;;;;0.10;0.10;;;;;;;19.67;57.00;96056.59;10411794;28;20512;-22
2022/06/08 15:19:59;;;;;;;0.10;0.10;;;;;;;19.54;56.92;96042.41;10411861;28;20048;-21
2022/06/08 15:25:00;;;;;;;;;;;;;;;19.58;56.83;96061.78;10411841;28;20037;-22
2022/06/08 15:30:02;;;;;;;0.10;0.10;;;;;;;19.55;57.06;96058.47;10411409;28;19913;-21
2022/06/08 15:35:03;;;;;;;0.10;0.10;;;;;;;19.53;56.94;96055.13;10425106;28;20039;-21
2022/06/08 15:40:06;;;;;;;0.20;0.20;;;;;;;19.53;57.01;96057.66;10410694;28;20132;-22
2022/06/08 15:45:07;;;;;;;0.10;0.10;;;;;;;19.53;56.95;96050.88;10451453;28;20039;-22
2022/06/08 15:50:16;;;;;;;0.00;0.00;;;;;;;19.53;57.02;96045.81;10449714;28;20119;-22
2022/06/08 15:55:29;;;;;;;0.10;0.10;;;;;;;19.53;57.03;96042.41;10410980;28;20063;-21
2022/06/08 16:00:30;;;;;;;0.20;0.20;;;;;;;19.66;57.80;96038.84;10451711;28;20025;-21
2022/06/08 16:05:34;;;;;;;0.28;0.10;;;;;;;19.82;57.94;96042.78;10440932;28;20075;-21
2022/06/08 16:10:37;;;;;;;0.10;0.10;;;;;;;19.72;57.25;96041.28;10410357;28;20037;-22
2022/06/08 16:15:37;;;;;;;0.10;0.10;;;;;;;19.62;56.75;96035.50;10408513;28;20042;-20
2022/06/08 16:20:38;;;;;;;0.10;0.10;;;;;;;19.59;57.20;96034.72;10409273;28;20036;-21
2022/06/08 16:25:42;;;;;;;0.20;0.10;;;;;;;19.56;56.98;96039.81;10408306;28;20033;-22
2022/06/08 16:30:42;;;;;;;0.10;0.10;;;;;;;19.54;56.94;96046.63;10409125;28;20484;-20
2022/06/08 16:35:44;;;;;;;0.10;0.10;;;;;;;19.49;56.98;96025.56;10426130;28;20069;-21
2022/06/08 16:40:46;;;;;;;0.10;0.10;;;;;;;19.52;56.88;96038.22;10413845;28;20115;-20
2022/06/08 16:45:46;;;;;;;0.10;0.10;;;;;;;19.51;57.08;96021.31;10449199;28;20474;-22
2022/06/08 16:50:49;;;;;;;0.10;0.10;;;;;;;19.52;57.03;96025.50;10445743;28;20052;-22
2022/06/08 16:55:49;;;;;;;0.10;0.10;;;;;;;19.56;58.69;96034.75;10482663;28;20075;-22
2022/06/08 17:00:50;;;;;;;0.10;0.10;;;;;;;19.77;57.76;96029.34;10449834;28;20029;-21
2022/06/08 17:05:51;;;;;;;0.00;0.00;;;;;;;19.81;56.93;96041.13;10430725;28;20284;-23
2022/06/08 17:16:11;;;;;;;0.25;0.10;;;;;;;19.57;56.97;96037.28;10408267;28;20076;-21
2022/06/08 17:21:12;;;;;;;0.17;0.17;;;;;;;19.57;56.89;96041.50;10408762;28;20033;-20
2022/06/08 17:26:14;;;;;;;0.20;0.15;;;;;;;19.55;56.83;96038.16;10411222;28;20495;-21
2022/06/08 17:31:15;;;;;;;0.10;0.10;;;;;;;19.53;56.81;96042.41;10416402;28;20043;-24
2022/06/08 17:36:18;;;;;;;0.03;0.03;;;;;;;19.50;56.68;96030.59;10441953;28;20041;-21
2022/06/08 17:41:18;;;;;;;0.73;0.17;;;;;;;19.52;56.90;96040.75;10415503;28;20056;-21
2022/06/08 17:46:19;;;;;;;0.83;0.23;;;;;;;19.44;56.94;96028.16;10415304;28;20044;-21
2022/06/08 17:51:19;;;;;;;0.20;0.13;;;;;;;19.51;56.93;96041.63;10438093;28;20028;-22
2022/06/08 17:56:19;;;;;;;0.20;0.10;;;;;;;19.67;57.82;96058.31;10484988;28;20376;-21
2022/06/08 18:01:20;;;;;;;0.07;0.07;;;;;;;19.82;57.83;96047.88;10456079;28;20075;-20
2022/06/08 18:06:20;;;;;;;0.13;0.13;;;;;;;19.72;56.96;96056.50;10426368;28;20333;-22
2022/06/08 18:16:42;;;;;;;0.25;0.20;;;;;;;19.62;57.04;96057.50;10414228;28;20292;-21
2022/06/08 18:21:42;;;;;;;0.20;0.10;;;;;;;19.52;57.12;96038.22;10440810;28;20029;-21
2022/06/08 18:26:48;;;;;;;0.23;0.10;;;;;;;19.57;57.09;96056.72;10441042;28;20577;-21
2022/06/08 18:31:49;;;;;;;0.10;0.10;;;;;;;19.55;57.08;96066.94;10417130;28;20029;-23
2022/06/08 18:36:49;;;;;;;0.10;0.10;;;;;;;19.54;56.84;96066.94;10431683;28;20061;-22
2022/06/08 18:41:50;;;;;;;0.20;0.20;;;;;;;19.55;56.94;96078.78;10413592;28;20296;-23
2022/06/08 18:46:51;;;;;;;0.13;0.13;;;;;;;19.53;57.00;96075.44;10413551;28;20025;-21
2022/06/08 18:51:52;;;;;;;0.00;0.00;;;;;;;19.63;58.05;96087.97;10444764;28;20028;-21
2022/06/08 18:56:52;;;;;;;0.35;0.20;;;;;;;19.80;57.94;96090.25;10478640;28;20028;-21
2022/06/08 19:01:53;;;;;;;0.22;0.10;;;;;;;19.77;57.05;96100.47;10453718;28;20517;-23
2022/06/08 19:06:53;;;;;;;0.28;0.10;;;;;;;19.61;56.94;96093.94;10417997;28;20033;-22
2022/06/08 19:11:54;;;;;;;0.10;0.10;;;;;;;19.60;57.05;96097.34;10426835;28;20037;-21
2022/06/08 19:16:54;;;;;;;0.03;0.03;;;;;;;19.57;57.05;96097.34;10453732;28;20028;-21
2022/06/08 19:21:55;;;;;;;0.30;0.10;;;;;;;19.55;56.92;96099.09;10427225;28;20060;-21
2022/06/08 19:26:55;;;;;;;0.10;0.10;;;;;;;19.53;57.01;96101.66;10425384;28;20044;-21
2022/06/08 19:31:56;;;;;;;0.10;0.10;;;;;;;19.47;56.98;96088.19;10452991;28;20062;-21
2022/06/08 19:36:57;;;;;;;0.20;0.20;;;;;;;19.53;57.09;96100.81;10450920;28;20283;-24
2022/06/08 19:41:57;;;;;;;0.10;0.10;;;;;;;19.53;57.03;96088.13;10436143;28;20041;-21
2022/06/08 19:46:58;;;;;;;0.10;0.10;;;;;;;19.53;57.04;96098.28;10410091;28;20026;-23
2022/06/08 19:51:58;;;;;;;0.10;0.10;;;;;;;19.71;57.90;96081.09;10444267;28;20048;-21
2022/06/08 19:56:58;;;;;;;0.10;0.10;;;;;;;19.78;57.07;96072.53;10460556;28;20045;-21
2022/06/08 20:01:59;;;;;;;0.00;0.00;;;;;;;19.59;57.00;96070.28;10410290;28;20476;-21
2022/06/08 20:06:59;;;;;;;0.00;0.00;;;;;;;19.60;56.98;96104.97;10409579;28;20488;-22
2022/06/08 20:12:00;;;;;;;0.30;0.10;;;;;;;19.56;56.96;96111.78;10424474;28;20029;-22
2022/06/08 20:17:01;;;;;;;0.10;0.10;;;;;;;19.52;57.03;96119.44;10450012;28;20029;-21
2022/06/08 20:22:01;;;;;;;0.10;0.10;;;;;;;19.53;56.96;96131.28;10417639;28;20091;-21
2022/06/08 20:27:03;;;;;;;0.08;0.08;;;;;;;19.52;57.09;96137.22;10408430;28;20033;-21
2022/06/08 20:32:05;;;;;;;0.10;0.10;;;;;;;19.51;56.95;96144.00;10413862;28;20147;-20
2022/06/08 20:37:05;;;;;;;0.10;0.10;;;;;;;19.51;57.04;96166.03;10413903;28;20048;-22
2022/06/08 20:42:08;;;;;;;0.03;0.03;;;;;;;19.51;57.05;96173.63;10408776;28;20038;-21
2022/06/08 20:47:09;;;;;;;0.20;0.10;;;;;;;19.66;57.79;96183.59;10408774;28;20040;-21
2022/06/08 20:52:11;;;;;;;0.00;0.00;;;;;;;19.79;57.84;96185.09;10446187;28;20376;-21
2022/06/08 20:57:12;;;;;;;0.10;0.10;;;;;;;19.70;57.08;96191.16;10455901;28;20040;-21
2022/06/08 21:02:16;;;;;;;0.10;0.10;;;;;;;19.61;57.13;96186.16;10420851;28;20056;-21
2022/06/08 21:07:17;;;;;;;0.00;0.00;;;;;;;19.57;57.08;96188.78;10444397;28;20484;-21
2022/06/08 21:12:18;;;;;;;0.10;0.10;;;;;;;19.54;57.04;96193.91;10445216;28;20033;-21
2022/06/08 21:17:19;;;;;;;0.10;0.10;;;;;;;19.52;57.07;96183.75;10421151;28;20029;-21
2022/06/08 21:22:19;;;;;;;0.10;0.10;;;;;;;19.52;56.81;96182.94;10421490;28;20029;-21
2022/06/08 21:27:20;;;;;;;0.20;0.10;;;;;;;19.51;57.08;96184.63;10421952;28;20492;-21
2022/06/08 21:32:20;;;;;;;0.10;0.10;;;;;;;19.45;56.96;96178.78;10428915;28;20037;-21
2022/06/08 21:37:20;;;;;;;0.10;0.10;;;;;;;19.48;57.07;96183.81;10423271;28;20553;-22
2022/06/08 21:42:21;;;;;;;0.30;0.17;;;;;;;19.50;57.65;96174.50;10439049;28;20045;-22
2022/06/08 21:47:21;;;;;;;0.10;0.10;;;;;;;19.70;57.86;96181.00;10462821;28;20033;-21
2022/06/08 21:52:22;;;;;;;0.10;0.10;;;;;;;19.78;56.83;96178.34;10468530;28;20295;-22
2022/06/08 21:57:23;;;;;;;0.17;0.17;;;;;;;19.62;56.82;96172.66;10465283;28;20061;-21
2022/06/08 22:02:23;;;;;;;0.20;0.20;;;;;;;19.57;57.14;96174.38;10421449;28;20045;-21
2022/06/08 22:07:23;;;;;;;0.10;0.10;;;;;;;19.53;56.94;96164.28;10420408;28;20435;-21
2022/06/08 22:12:24;;;;;;;0.10;0.10;;;;;;;19.53;57.15;96176.97;10433615;28;20037;-21
2022/06/08 22:17:24;;;;;;;0.10;0.10;;;;;;;19.51;56.96;96163.47;10453871;28;20033;-20
2022/06/08 22:22:24;;;;;;;0.00;0.00;;;;;;;19.50;57.35;96167.69;10431030;28;20120;-21
2022/06/08 22:27:26;;;;;;;0.10;0.10;;;;;;;19.45;56.95;96158.47;10413706;28;20792;-21
2022/06/08 22:32:26;;;;;;;0.38;0.10;;;;;;;19.49;57.08;96165.19;10421299;28;20039;-21
2022/06/08 22:37:30;;;;;;;0.20;0.10;;;;;;;19.49;57.00;96167.75;10431840;28;20037;-20
2022/06/08 22:42:30;;;;;;;0.20;0.10;;;;;;;19.64;57.94;96177.69;10413092;28;20033;-20
2022/06/08 22:47:30;;;;;;;0.10;0.10;;;;;;;19.77;57.56;96169.06;10413386;28;20391;-21
2022/06/08 22:52:31;;;;;;;0.00;0.00;;;;;;;19.66;57.42;96171.72;10455570;28;20403;-23
2022/06/08 22:57:31;;;;;;;0.10;0.10;;;;;;;19.61;57.04;96167.56;10454378;28;20201;-21
2022/06/08 23:02:33;;;;;;;0.10;0.10;;;;;;;19.55;57.05;96157.50;10412225;28;20040;-21
2022/06/08 23:07:34;;;;;;;0.08;0.08;;;;;;;19.52;57.26;96155.81;10437658;28;20029;-21
2022/06/08 23:12:34;;;;;;;0.10;0.10;;;;;;;19.48;57.16;96145.72;10431952;28;20049;-21
2022/06/08 23:22:58;;;;;;;0.10;0.10;;;;;;;19.49;57.02;96170.28;10411487;28;20045;-22
2022/06/08 23:27:59;;;;;;;0.10;0.10;;;;;;;19.49;56.94;96167.75;10411665;28;20030;-21
2022/06/08 23:33:01;;;;;;;0.10;0.10;;;;;;;19.49;57.02;96172.81;10423824;28;20033;-20
2022/06/08 23:38:02;;;;;;;0.10;0.10;;;;;;;19.52;58.03;96171.06;10423772;28;20045;-22
2022/06/08 23:43:03;;;;;;;0.15;0.10;;;;;;;19.74;57.83;96172.47;10410431;28;20423;-21
2022/06/08 23:48:04;;;;;;;0.10;0.10;;;;;;;19.69;57.47;96181.84;10410713;28;20111;-21
2022/06/08 23:53:05;;;;;;;0.10;0.10;;;;;;;19.58;56.89;96176.06;10410642;28;20040;-22
2022/06/08 23:58:06;;;;;;;0.20;0.10;;;;;;;19.48;57.18;96169.44;10409778;28;20037;-22
